sensor_id;sensor_type;location;lat;lon;timestamp;temperature;humidity
5461;DHT22;2753;49.196;8.286;2022-08-19T00:00:15;22.40;90.00
5461;DHT22;2753;49.196;8.286;2022-08-19T00:02:42;22.40;90.30
5461;DHT22;2753;49.196;8.286;2022-08-19T00:05:09;22.40;90.00
5461;DHT22;2753;49.196;8.286;2022-08-19T00:07:35;22.40;90.00
5461;DHT22;2753;49.196;8.286;2022-08-19T00:10:00;22.40;90.10
5461;DHT22;2753;49.196;8.286;2022-08-19T00:12:27;22.40;90.00
5461;DHT22;2753;49.196;8.286;2022-08-19T00:14:52;22.40;90.00
5461;DHT22;2753;49.196;8.286;2022-08-19T00:17:20;22.40;90.00
5461;DHT22;2753;49.196;8.286;2022-08-19T00:19:45;22.40;90.50
5461;DHT22;2753;49.196;8.286;2022-08-19T00:22:11;22.40;90.00
5461;DHT22;2753;49.196;8.286;2022-08-19T00:24:37;22.40;90.20
5461;DHT22;2753;49.196;8.286;2022-08-19T00:27:04;22.40;90.20
5461;DHT22;2753;49.196;8.286;2022-08-19T00:29:30;22.30;90.30
5461;DHT22;2753;49.196;8.286;2022-08-19T00:31:57;22.30;90.30
5461;DHT22;2753;49.196;8.286;2022-08-19T00:34:24;22.30;90.20
5461;DHT22;2753;49.196;8.286;2022-08-19T00:36:53;22.30;90.30
5461;DHT22;2753;49.196;8.286;2022-08-19T00:39:19;22.30;90.30
5461;DHT22;2753;49.196;8.286;2022-08-19T00:41:46;22.30;90.30
5461;DHT22;2753;49.196;8.286;2022-08-19T00:44:25;22.30;90.30
5461;DHT22;2753;49.196;8.286;2022-08-19T00:46:53;22.30;90.30
5461;DHT22;2753;49.196;8.286;2022-08-19T00:49:28;22.30;90.30
5461;DHT22;2753;49.196;8.286;2022-08-19T00:52:06;22.30;90.30
5461;DHT22;2753;49.196;8.286;2022-08-19T00:54:35;22.30;90.30
5461;DHT22;2753;49.196;8.286;2022-08-19T00:57:05;22.30;90.40
5461;DHT22;2753;49.196;8.286;2022-08-19T00:59:35;22.30;90.20
5461;DHT22;2753;49.196;8.286;2022-08-19T01:02:03;22.30;90.20
5461;DHT22;2753;49.196;8.286;2022-08-19T01:04:29;22.30;90.30
5461;DHT22;2753;49.196;8.286;2022-08-19T01:06:56;22.30;90.30
5461;DHT22;2753;49.196;8.286;2022-08-19T01:09:22;22.30;90.40
5461;DHT22;2753;49.196;8.286;2022-08-19T01:11:48;22.20;90.40
5461;DHT22;2753;49.196;8.286;2022-08-19T01:14:14;22.20;90.40
5461;DHT22;2753;49.196;8.286;2022-08-19T01:16:43;22.20;90.40
5461;DHT22;2753;49.196;8.286;2022-08-19T01:19:27;22.20;90.50
5461;DHT22;2753;49.196;8.286;2022-08-19T01:24:48;22.20;90.50
5461;DHT22;2753;49.196;8.286;2022-08-19T01:27:14;22.20;90.50
5461;DHT22;2753;49.196;8.286;2022-08-19T01:29:41;22.20;90.50
5461;DHT22;2753;49.196;8.286;2022-08-19T01:32:10;22.20;90.60
5461;DHT22;2753;49.196;8.286;2022-08-19T01:34:37;22.20;90.60
5461;DHT22;2753;49.196;8.286;2022-08-19T01:37:10;22.20;90.70
5461;DHT22;2753;49.196;8.286;2022-08-19T01:39:39;22.10;90.60
5461;DHT22;2753;49.196;8.286;2022-08-19T01:42:06;22.10;90.60
5461;DHT22;2753;49.196;8.286;2022-08-19T01:44:33;22.10;90.70
5461;DHT22;2753;49.196;8.286;2022-08-19T01:46:58;22.10;90.50
5461;DHT22;2753;49.196;8.286;2022-08-19T01:49:25;22.20;90.60
5461;DHT22;2753;49.196;8.286;2022-08-19T01:51:52;22.20;90.60
5461;DHT22;2753;49.196;8.286;2022-08-19T01:54:21;22.20;90.70
5461;DHT22;2753;49.196;8.286;2022-08-19T01:56:47;22.10;90.60
5461;DHT22;2753;49.196;8.286;2022-08-19T01:59:17;22.10;90.80
5461;DHT22;2753;49.196;8.286;2022-08-19T02:01:44;22.10;90.80
5461;DHT22;2753;49.196;8.286;2022-08-19T02:04:10;22.10;90.80
5461;DHT22;2753;49.196;8.286;2022-08-19T02:06:36;22.10;90.80
5461;DHT22;2753;49.196;8.286;2022-08-19T02:09:03;22.10;90.70
5461;DHT22;2753;49.196;8.286;2022-08-19T02:11:32;22.10;90.90
5461;DHT22;2753;49.196;8.286;2022-08-19T02:14:05;22.10;90.90
5461;DHT22;2753;49.196;8.286;2022-08-19T02:16:31;22.10;91.00
5461;DHT22;2753;49.196;8.286;2022-08-19T02:18:58;22.00;90.90
5461;DHT22;2753;49.196;8.286;2022-08-19T02:21:28;22.00;90.90
5461;DHT22;2753;49.196;8.286;2022-08-19T02:23:54;22.00;91.00
5461;DHT22;2753;49.196;8.286;2022-08-19T02:26:20;22.00;91.00
5461;DHT22;2753;49.196;8.286;2022-08-19T02:28:46;22.00;91.00
5461;DHT22;2753;49.196;8.286;2022-08-19T02:31:15;22.00;91.00
5461;DHT22;2753;49.196;8.286;2022-08-19T02:33:42;22.00;91.00
5461;DHT22;2753;49.196;8.286;2022-08-19T02:36:09;22.00;90.80
5461;DHT22;2753;49.196;8.286;2022-08-19T02:38:35;22.10;90.90
5461;DHT22;2753;49.196;8.286;2022-08-19T02:41:05;22.00;91.00
5461;DHT22;2753;49.196;8.286;2022-08-19T02:43:33;22.00;90.90
5461;DHT22;2753;49.196;8.286;2022-08-19T02:46:11;22.00;90.80
5461;DHT22;2753;49.196;8.286;2022-08-19T02:48:37;22.10;90.90
5461;DHT22;2753;49.196;8.286;2022-08-19T02:51:03;22.10;90.70
5461;DHT22;2753;49.196;8.286;2022-08-19T02:53:29;22.10;91.00
5461;DHT22;2753;49.196;8.286;2022-08-19T02:55:55;22.00;91.10
5461;DHT22;2753;49.196;8.286;2022-08-19T02:58:21;22.00;91.30
5461;DHT22;2753;49.196;8.286;2022-08-19T03:00:53;21.90;91.30
5461;DHT22;2753;49.196;8.286;2022-08-19T03:03:19;21.90;91.40
5461;DHT22;2753;49.196;8.286;2022-08-19T03:05:46;21.90;91.40
5461;DHT22;2753;49.196;8.286;2022-08-19T03:08:14;21.90;91.50
5461;DHT22;2753;49.196;8.286;2022-08-19T03:10:46;21.90;91.50
5461;DHT22;2753;49.196;8.286;2022-08-19T03:13:17;21.90;91.50
5461;DHT22;2753;49.196;8.286;2022-08-19T03:15:45;21.90;91.50
5461;DHT22;2753;49.196;8.286;2022-08-19T03:18:12;21.80;91.40
5461;DHT22;2753;49.196;8.286;2022-08-19T03:20:56;21.80;91.40
5461;DHT22;2753;49.196;8.286;2022-08-19T03:23:23;21.70;91.40
5461;DHT22;2753;49.196;8.286;2022-08-19T03:25:50;21.70;91.30
5461;DHT22;2753;49.196;8.286;2022-08-19T03:28:16;21.70;91.30
5461;DHT22;2753;49.196;8.286;2022-08-19T03:30:53;21.70;91.30
5461;DHT22;2753;49.196;8.286;2022-08-19T03:33:22;21.70;91.30
5461;DHT22;2753;49.196;8.286;2022-08-19T03:36:32;21.70;91.30
5461;DHT22;2753;49.196;8.286;2022-08-19T03:38:57;21.70;91.30
5461;DHT22;2753;49.196;8.286;2022-08-19T03:41:25;21.70;91.20
5461;DHT22;2753;49.196;8.286;2022-08-19T03:43:53;21.70;91.20
5461;DHT22;2753;49.196;8.286;2022-08-19T03:46:22;21.70;91.20
5461;DHT22;2753;49.196;8.286;2022-08-19T03:48:51;21.70;91.20
5461;DHT22;2753;49.196;8.286;2022-08-19T03:51:27;21.70;91.20
5461;DHT22;2753;49.196;8.286;2022-08-19T03:53:54;21.70;91.30
5461;DHT22;2753;49.196;8.286;2022-08-19T03:56:21;21.70;91.20
5461;DHT22;2753;49.196;8.286;2022-08-19T03:58:47;21.70;91.30
5461;DHT22;2753;49.196;8.286;2022-08-19T04:01:16;21.70;91.20
5461;DHT22;2753;49.196;8.286;2022-08-19T04:03:43;21.70;91.20
5461;DHT22;2753;49.196;8.286;2022-08-19T04:08:43;21.70;91.10
5461;DHT22;2753;49.196;8.286;2022-08-19T04:11:12;21.80;91.00
5461;DHT22;2753;49.196;8.286;2022-08-19T04:13:38;21.80;91.00
5461;DHT22;2753;49.196;8.286;2022-08-19T04:16:05;21.70;91.20
5461;DHT22;2753;49.196;8.286;2022-08-19T04:18:33;21.70;91.20
5461;DHT22;2753;49.196;8.286;2022-08-19T04:20:59;21.70;91.20
5461;DHT22;2753;49.196;8.286;2022-08-19T04:23:25;21.70;91.30
5461;DHT22;2753;49.196;8.286;2022-08-19T04:25:52;21.70;91.20
5461;DHT22;2753;49.196;8.286;2022-08-19T04:28:18;21.70;91.60
5461;DHT22;2753;49.196;8.286;2022-08-19T04:30:47;21.70;91.30
5461;DHT22;2753;49.196;8.286;2022-08-19T04:33:14;21.60;91.20
5461;DHT22;2753;49.196;8.286;2022-08-19T04:35:44;21.60;91.20
5461;DHT22;2753;49.196;8.286;2022-08-19T04:38:10;21.60;91.30
5461;DHT22;2753;49.196;8.286;2022-08-19T04:40:41;21.60;91.30
5461;DHT22;2753;49.196;8.286;2022-08-19T04:43:26;21.60;91.30
5461;DHT22;2753;49.196;8.286;2022-08-19T04:45:51;21.60;91.20
5461;DHT22;2753;49.196;8.286;2022-08-19T04:48:17;21.60;91.30
5461;DHT22;2753;49.196;8.286;2022-08-19T04:50:47;21.60;91.40
5461;DHT22;2753;49.196;8.286;2022-08-19T04:53:13;21.60;91.30
5461;DHT22;2753;49.196;8.286;2022-08-19T04:55:41;21.60;91.30
5461;DHT22;2753;49.196;8.286;2022-08-19T04:58:07;21.60;91.40
5461;DHT22;2753;49.196;8.286;2022-08-19T05:00:33;21.60;91.30
5461;DHT22;2753;49.196;8.286;2022-08-19T05:02:58;21.60;91.30
5461;DHT22;2753;49.196;8.286;2022-08-19T05:05:24;21.60;91.30
5461;DHT22;2753;49.196;8.286;2022-08-19T05:07:50;21.60;91.30
5461;DHT22;2753;49.196;8.286;2022-08-19T05:10:15;21.60;91.40
5461;DHT22;2753;49.196;8.286;2022-08-19T05:12:41;21.60;91.40
5461;DHT22;2753;49.196;8.286;2022-08-19T05:15:07;21.60;91.30
5461;DHT22;2753;49.196;8.286;2022-08-19T05:17:34;21.60;91.30
5461;DHT22;2753;49.196;8.286;2022-08-19T05:19:59;21.60;91.30
5461;DHT22;2753;49.196;8.286;2022-08-19T05:22:46;21.60;91.30
5461;DHT22;2753;49.196;8.286;2022-08-19T05:25:15;21.60;91.40
5461;DHT22;2753;49.196;8.286;2022-08-19T05:27:44;21.60;91.40
5461;DHT22;2753;49.196;8.286;2022-08-19T05:30:10;21.60;91.30
5461;DHT22;2753;49.196;8.286;2022-08-19T05:32:37;21.60;91.40
5461;DHT22;2753;49.196;8.286;2022-08-19T05:35:03;21.60;91.40
5461;DHT22;2753;49.196;8.286;2022-08-19T05:37:29;21.70;91.40
5461;DHT22;2753;49.196;8.286;2022-08-19T05:39:55;21.70;91.50
5461;DHT22;2753;49.196;8.286;2022-08-19T05:42:20;21.70;91.40
5461;DHT22;2753;49.196;8.286;2022-08-19T05:44:48;21.70;91.40
5461;DHT22;2753;49.196;8.286;2022-08-19T05:47:15;21.70;91.40
5461;DHT22;2753;49.196;8.286;2022-08-19T05:49:41;21.70;91.30
5461;DHT22;2753;49.196;8.286;2022-08-19T05:52:10;21.70;91.30
5461;DHT22;2753;49.196;8.286;2022-08-19T05:54:40;21.70;91.20
5461;DHT22;2753;49.196;8.286;2022-08-19T05:57:07;21.70;91.20
5461;DHT22;2753;49.196;8.286;2022-08-19T05:59:33;21.70;91.30
5461;DHT22;2753;49.196;8.286;2022-08-19T06:02:01;21.70;91.30
5461;DHT22;2753;49.196;8.286;2022-08-19T06:04:27;21.70;91.20
5461;DHT22;2753;49.196;8.286;2022-08-19T06:06:54;21.80;91.30
5461;DHT22;2753;49.196;8.286;2022-08-19T06:09:22;21.80;91.30
5461;DHT22;2753;49.196;8.286;2022-08-19T06:11:51;21.80;91.20
5461;DHT22;2753;49.196;8.286;2022-08-19T06:14:23;21.80;91.60
5461;DHT22;2753;49.196;8.286;2022-08-19T06:16:50;21.80;91.30
5461;DHT22;2753;49.196;8.286;2022-08-19T06:19:20;21.80;91.30
5461;DHT22;2753;49.196;8.286;2022-08-19T06:21:48;21.80;91.20
5461;DHT22;2753;49.196;8.286;2022-08-19T06:24:18;21.80;91.30
5461;DHT22;2753;49.196;8.286;2022-08-19T06:26:46;21.80;91.30
5461;DHT22;2753;49.196;8.286;2022-08-19T06:29:14;21.80;91.40
5461;DHT22;2753;49.196;8.286;2022-08-19T06:31:48;21.80;91.30
5461;DHT22;2753;49.196;8.286;2022-08-19T06:34:17;21.80;91.30
5461;DHT22;2753;49.196;8.286;2022-08-19T06:36:51;21.80;91.30
5461;DHT22;2753;49.196;8.286;2022-08-19T06:39:22;21.90;91.40
5461;DHT22;2753;49.196;8.286;2022-08-19T06:41:51;21.90;91.40
5461;DHT22;2753;49.196;8.286;2022-08-19T06:44:19;21.90;91.30
5461;DHT22;2753;49.196;8.286;2022-08-19T06:46:45;21.90;91.30
5461;DHT22;2753;49.196;8.286;2022-08-19T06:49:11;22.00;91.40
5461;DHT22;2753;49.196;8.286;2022-08-19T06:51:44;22.00;91.30
5461;DHT22;2753;49.196;8.286;2022-08-19T06:54:10;22.00;91.30
5461;DHT22;2753;49.196;8.286;2022-08-19T06:56:36;22.00;91.20
5461;DHT22;2753;49.196;8.286;2022-08-19T06:59:11;22.10;91.20
5461;DHT22;2753;49.196;8.286;2022-08-19T07:01:39;22.10;91.20
5461;DHT22;2753;49.196;8.286;2022-08-19T07:04:07;22.10;91.10
5461;DHT22;2753;49.196;8.286;2022-08-19T07:06:34;22.20;91.20
5461;DHT22;2753;49.196;8.286;2022-08-19T07:09:00;22.20;91.20
5461;DHT22;2753;49.196;8.286;2022-08-19T07:11:26;22.20;91.20
5461;DHT22;2753;49.196;8.286;2022-08-19T07:13:52;22.20;91.10
5461;DHT22;2753;49.196;8.286;2022-08-19T07:16:19;22.30;91.20
5461;DHT22;2753;49.196;8.286;2022-08-19T07:18:49;22.30;91.00
5461;DHT22;2753;49.196;8.286;2022-08-19T07:21:23;22.30;91.00
5461;DHT22;2753;49.196;8.286;2022-08-19T07:23:50;22.40;91.00
5461;DHT22;2753;49.196;8.286;2022-08-19T07:28:50;22.50;91.00
5461;DHT22;2753;49.196;8.286;2022-08-19T07:31:19;22.50;90.80
5461;DHT22;2753;49.196;8.286;2022-08-19T07:33:46;22.60;90.80
5461;DHT22;2753;49.196;8.286;2022-08-19T07:36:14;22.70;90.80
5461;DHT22;2753;49.196;8.286;2022-08-19T07:38:43;22.70;90.70
5461;DHT22;2753;49.196;8.286;2022-08-19T07:41:14;22.80;90.70
5461;DHT22;2753;49.196;8.286;2022-08-19T07:43:40;22.90;90.50
5461;DHT22;2753;49.196;8.286;2022-08-19T07:46:06;23.00;90.50
5461;DHT22;2753;49.196;8.286;2022-08-19T07:48:32;23.10;90.30
5461;DHT22;2753;49.196;8.286;2022-08-19T07:51:00;23.20;90.20
5461;DHT22;2753;49.196;8.286;2022-08-19T07:53:30;23.30;90.00
5461;DHT22;2753;49.196;8.286;2022-08-19T07:55:56;23.30;90.00
5461;DHT22;2753;49.196;8.286;2022-08-19T07:58:33;23.40;90.00
5461;DHT22;2753;49.196;8.286;2022-08-19T08:00:59;23.40;89.90
5461;DHT22;2753;49.196;8.286;2022-08-19T08:03:26;23.50;90.00
5461;DHT22;2753;49.196;8.286;2022-08-19T08:06:12;23.50;89.50
5461;DHT22;2753;49.196;8.286;2022-08-19T08:08:57;23.60;89.70
5461;DHT22;2753;49.196;8.286;2022-08-19T08:11:44;23.70;89.50
5461;DHT22;2753;49.196;8.286;2022-08-19T08:14:18;23.80;89.30
5461;DHT22;2753;49.196;8.286;2022-08-19T08:16:45;23.90;88.90
5461;DHT22;2753;49.196;8.286;2022-08-19T08:19:12;23.90;88.50
5461;DHT22;2753;49.196;8.286;2022-08-19T08:21:40;23.90;88.60
5461;DHT22;2753;49.196;8.286;2022-08-19T08:24:07;24.00;88.10
5461;DHT22;2753;49.196;8.286;2022-08-19T08:26:32;23.90;87.80
5461;DHT22;2753;49.196;8.286;2022-08-19T08:28:58;24.00;87.30
5461;DHT22;2753;49.196;8.286;2022-08-19T08:31:23;24.00;87.70
5461;DHT22;2753;49.196;8.286;2022-08-19T08:33:49;24.00;87.40
5461;DHT22;2753;49.196;8.286;2022-08-19T08:36:15;23.90;87.40
5461;DHT22;2753;49.196;8.286;2022-08-19T08:38:42;23.90;87.60
5461;DHT22;2753;49.196;8.286;2022-08-19T08:41:34;24.00;87.40
5461;DHT22;2753;49.196;8.286;2022-08-19T08:44:02;24.10;87.10
5461;DHT22;2753;49.196;8.286;2022-08-19T08:46:43;24.10;87.50
5461;DHT22;2753;49.196;8.286;2022-08-19T08:49:23;24.10;86.70
5461;DHT22;2753;49.196;8.286;2022-08-19T08:51:59;24.10;86.10
5461;DHT22;2753;49.196;8.286;2022-08-19T08:54:35;24.20;86.30
5461;DHT22;2753;49.196;8.286;2022-08-19T08:57:05;24.30;86.20
5461;DHT22;2753;49.196;8.286;2022-08-19T08:59:36;24.40;86.30
5461;DHT22;2753;49.196;8.286;2022-08-19T09:02:02;24.50;85.00
5461;DHT22;2753;49.196;8.286;2022-08-19T09:04:28;24.60;84.30
5461;DHT22;2753;49.196;8.286;2022-08-19T09:07:07;24.70;84.00
5461;DHT22;2753;49.196;8.286;2022-08-19T09:09:41;24.90;84.20
5461;DHT22;2753;49.196;8.286;2022-08-19T09:12:27;25.00;83.00
5461;DHT22;2753;49.196;8.286;2022-08-19T09:15:02;25.20;82.40
5461;DHT22;2753;49.196;8.286;2022-08-19T09:17:30;25.30;82.90
5461;DHT22;2753;49.196;8.286;2022-08-19T09:22:39;25.60;83.20
5461;DHT22;2753;49.196;8.286;2022-08-19T09:25:07;25.60;82.60
5461;DHT22;2753;49.196;8.286;2022-08-19T09:27:33;25.70;82.60
5461;DHT22;2753;49.196;8.286;2022-08-19T09:30:03;25.80;81.40
5461;DHT22;2753;49.196;8.286;2022-08-19T09:32:29;25.70;80.90
5461;DHT22;2753;49.196;8.286;2022-08-19T09:34:55;25.80;81.10
5461;DHT22;2753;49.196;8.286;2022-08-19T09:37:24;25.90;81.20
5461;DHT22;2753;49.196;8.286;2022-08-19T09:39:50;25.90;80.50
5461;DHT22;2753;49.196;8.286;2022-08-19T09:42:15;25.90;80.00
5461;DHT22;2753;49.196;8.286;2022-08-19T09:44:42;25.90;80.50
5461;DHT22;2753;49.196;8.286;2022-08-19T09:47:10;25.80;79.50
5461;DHT22;2753;49.196;8.286;2022-08-19T09:49:37;25.80;79.70
5461;DHT22;2753;49.196;8.286;2022-08-19T09:52:05;25.90;79.80
5461;DHT22;2753;49.196;8.286;2022-08-19T09:54:31;26.00;79.90
5461;DHT22;2753;49.196;8.286;2022-08-19T09:56:58;26.00;78.70
5461;DHT22;2753;49.196;8.286;2022-08-19T09:59:26;26.10;78.60
5461;DHT22;2753;49.196;8.286;2022-08-19T10:01:52;26.30;78.20
5461;DHT22;2753;49.196;8.286;2022-08-19T10:04:18;26.40;78.50
5461;DHT22;2753;49.196;8.286;2022-08-19T10:06:45;26.40;78.10
5461;DHT22;2753;49.196;8.286;2022-08-19T10:09:15;26.50;77.80
5461;DHT22;2753;49.196;8.286;2022-08-19T10:11:42;26.40;76.80
5461;DHT22;2753;49.196;8.286;2022-08-19T10:14:08;26.50;76.60
5461;DHT22;2753;49.196;8.286;2022-08-19T10:16:35;26.60;76.40
5461;DHT22;2753;49.196;8.286;2022-08-19T10:19:01;26.70;75.20
5461;DHT22;2753;49.196;8.286;2022-08-19T10:21:30;26.70;75.50
5461;DHT22;2753;49.196;8.286;2022-08-19T10:23:59;26.70;75.70
5461;DHT22;2753;49.196;8.286;2022-08-19T10:26:32;26.70;75.00
5461;DHT22;2753;49.196;8.286;2022-08-19T10:28:58;26.70;75.00
5461;DHT22;2753;49.196;8.286;2022-08-19T10:31:26;26.70;74.90
5461;DHT22;2753;49.196;8.286;2022-08-19T10:33:53;26.80;74.80
5461;DHT22;2753;49.196;8.286;2022-08-19T10:36:34;26.80;73.60
5461;DHT22;2753;49.196;8.286;2022-08-19T10:39:04;26.80;75.00
5461;DHT22;2753;49.196;8.286;2022-08-19T10:41:36;26.90;73.00
5461;DHT22;2753;49.196;8.286;2022-08-19T10:44:06;26.90;72.60
5461;DHT22;2753;49.196;8.286;2022-08-19T10:46:35;27.00;72.80
5461;DHT22;2753;49.196;8.286;2022-08-19T10:49:03;26.90;72.30
5461;DHT22;2753;49.196;8.286;2022-08-19T10:51:29;26.90;73.30
5461;DHT22;2753;49.196;8.286;2022-08-19T10:54:14;27.10;73.20
5461;DHT22;2753;49.196;8.286;2022-08-19T10:56:40;27.20;72.90
5461;DHT22;2753;49.196;8.286;2022-08-19T10:59:24;27.30;72.70
5461;DHT22;2753;49.196;8.286;2022-08-19T11:01:54;27.30;72.40
5461;DHT22;2753;49.196;8.286;2022-08-19T11:04:20;27.30;71.40
5461;DHT22;2753;49.196;8.286;2022-08-19T11:06:48;27.40;71.00
5461;DHT22;2753;49.196;8.286;2022-08-19T11:09:19;27.30;70.80
5461;DHT22;2753;49.196;8.286;2022-08-19T11:11:46;27.30;71.30
5461;DHT22;2753;49.196;8.286;2022-08-19T11:14:15;27.20;71.10
5461;DHT22;2753;49.196;8.286;2022-08-19T11:16:42;27.20;71.30
5461;DHT22;2753;49.196;8.286;2022-08-19T11:19:10;27.30;71.30
5461;DHT22;2753;49.196;8.286;2022-08-19T11:21:39;27.30;71.10
5461;DHT22;2753;49.196;8.286;2022-08-19T11:24:08;27.30;70.60
5461;DHT22;2753;49.196;8.286;2022-08-19T11:26:35;27.30;71.30
5461;DHT22;2753;49.196;8.286;2022-08-19T11:29:01;27.30;70.90
5461;DHT22;2753;49.196;8.286;2022-08-19T11:31:30;27.30;70.40
5461;DHT22;2753;49.196;8.286;2022-08-19T11:33:57;27.40;70.10
5461;DHT22;2753;49.196;8.286;2022-08-19T11:36:25;27.40;70.30
5461;DHT22;2753;49.196;8.286;2022-08-19T11:38:52;27.40;70.50
5461;DHT22;2753;49.196;8.286;2022-08-19T11:41:20;27.30;70.30
5461;DHT22;2753;49.196;8.286;2022-08-19T11:43:46;27.40;70.50
5461;DHT22;2753;49.196;8.286;2022-08-19T11:46:13;27.40;70.00
5461;DHT22;2753;49.196;8.286;2022-08-19T11:48:40;27.50;70.10
5461;DHT22;2753;49.196;8.286;2022-08-19T11:51:11;27.50;70.30
5461;DHT22;2753;49.196;8.286;2022-08-19T11:53:38;27.60;70.60
5461;DHT22;2753;49.196;8.286;2022-08-19T11:56:07;27.60;70.60
5461;DHT22;2753;49.196;8.286;2022-08-19T11:58:33;27.70;70.60
5461;DHT22;2753;49.196;8.286;2022-08-19T12:00:59;27.70;70.00
5461;DHT22;2753;49.196;8.286;2022-08-19T12:03:26;27.70;70.30
5461;DHT22;2753;49.196;8.286;2022-08-19T12:05:51;27.60;69.60
5461;DHT22;2753;49.196;8.286;2022-08-19T12:08:17;27.60;69.60
5461;DHT22;2753;49.196;8.286;2022-08-19T12:10:44;27.70;66.90
5461;DHT22;2753;49.196;8.286;2022-08-19T12:13:11;27.70;67.90
5461;DHT22;2753;49.196;8.286;2022-08-19T12:15:39;27.70;67.20
5461;DHT22;2753;49.196;8.286;2022-08-19T12:18:08;27.80;67.90
5461;DHT22;2753;49.196;8.286;2022-08-19T12:20:36;27.90;67.60
5461;DHT22;2753;49.196;8.286;2022-08-19T12:23:02;27.90;67.10
5461;DHT22;2753;49.196;8.286;2022-08-19T12:25:28;28.00;67.50
5461;DHT22;2753;49.196;8.286;2022-08-19T12:27:54;28.10;66.90
5461;DHT22;2753;49.196;8.286;2022-08-19T12:30:20;28.10;66.60
5461;DHT22;2753;49.196;8.286;2022-08-19T12:32:46;28.10;65.50
5461;DHT22;2753;49.196;8.286;2022-08-19T12:35:11;28.20;64.60
5461;DHT22;2753;49.196;8.286;2022-08-19T12:37:38;28.30;64.20
5461;DHT22;2753;49.196;8.286;2022-08-19T12:40:04;28.30;62.20
5461;DHT22;2753;49.196;8.286;2022-08-19T12:42:30;28.30;61.00
5461;DHT22;2753;49.196;8.286;2022-08-19T12:44:56;28.40;60.40
5461;DHT22;2753;49.196;8.286;2022-08-19T12:47:22;28.40;59.40
5461;DHT22;2753;49.196;8.286;2022-08-19T12:49:48;28.40;59.20
5461;DHT22;2753;49.196;8.286;2022-08-19T12:52:14;28.30;59.90
5461;DHT22;2753;49.196;8.286;2022-08-19T12:54:41;28.30;59.00
5461;DHT22;2753;49.196;8.286;2022-08-19T12:57:08;28.30;59.20
5461;DHT22;2753;49.196;8.286;2022-08-19T12:59:35;28.20;59.10
5461;DHT22;2753;49.196;8.286;2022-08-19T13:02:02;28.20;59.00
5461;DHT22;2753;49.196;8.286;2022-08-19T13:04:30;28.20;57.90
5461;DHT22;2753;49.196;8.286;2022-08-19T13:06:55;28.30;58.40
5461;DHT22;2753;49.196;8.286;2022-08-19T13:09:21;28.30;58.10
5461;DHT22;2753;49.196;8.286;2022-08-19T13:11:47;28.40;57.60
5461;DHT22;2753;49.196;8.286;2022-08-19T13:14:16;28.30;57.60
5461;DHT22;2753;49.196;8.286;2022-08-19T13:16:41;28.50;57.40
5461;DHT22;2753;49.196;8.286;2022-08-19T13:19:08;28.50;57.40
5461;DHT22;2753;49.196;8.286;2022-08-19T13:21:34;28.50;58.40
5461;DHT22;2753;49.196;8.286;2022-08-19T13:23:59;28.50;57.10
5461;DHT22;2753;49.196;8.286;2022-08-19T13:26:25;28.50;57.10
5461;DHT22;2753;49.196;8.286;2022-08-19T13:28:51;28.50;57.20
5461;DHT22;2753;49.196;8.286;2022-08-19T13:31:38;28.60;57.70
5461;DHT22;2753;49.196;8.286;2022-08-19T13:34:33;28.60;56.70
5461;DHT22;2753;49.196;8.286;2022-08-19T13:37:01;28.80;56.50
5461;DHT22;2753;49.196;8.286;2022-08-19T13:39:29;28.80;56.60
5461;DHT22;2753;49.196;8.286;2022-08-19T13:41:55;28.80;56.60
5461;DHT22;2753;49.196;8.286;2022-08-19T13:44:21;28.70;57.20
5461;DHT22;2753;49.196;8.286;2022-08-19T13:46:48;28.80;56.90
5461;DHT22;2753;49.196;8.286;2022-08-19T13:49:16;28.80;56.70
5461;DHT22;2753;49.196;8.286;2022-08-19T13:51:43;28.70;57.40
5461;DHT22;2753;49.196;8.286;2022-08-19T13:54:10;28.60;56.70
5461;DHT22;2753;49.196;8.286;2022-08-19T13:56:41;28.60;57.40
5461;DHT22;2753;49.196;8.286;2022-08-19T13:59:07;28.60;57.70
5461;DHT22;2753;49.196;8.286;2022-08-19T14:01:32;28.60;57.00
5461;DHT22;2753;49.196;8.286;2022-08-19T14:03:59;28.60;57.40
5461;DHT22;2753;49.196;8.286;2022-08-19T14:06:24;28.60;57.60
5461;DHT22;2753;49.196;8.286;2022-08-19T14:08:50;28.60;57.70
5461;DHT22;2753;49.196;8.286;2022-08-19T14:11:17;28.70;56.90
5461;DHT22;2753;49.196;8.286;2022-08-19T14:13:42;28.70;58.00
5461;DHT22;2753;49.196;8.286;2022-08-19T14:16:13;28.60;58.00
5461;DHT22;2753;49.196;8.286;2022-08-19T14:18:39;28.60;58.10
5461;DHT22;2753;49.196;8.286;2022-08-19T14:21:05;28.60;58.60
5461;DHT22;2753;49.196;8.286;2022-08-19T14:23:32;28.50;58.20
5461;DHT22;2753;49.196;8.286;2022-08-19T14:26:11;28.50;57.90
5461;DHT22;2753;49.196;8.286;2022-08-19T14:28:37;28.50;57.90
5461;DHT22;2753;49.196;8.286;2022-08-19T14:31:04;28.40;57.50
5461;DHT22;2753;49.196;8.286;2022-08-19T14:33:30;28.50;58.30
5461;DHT22;2753;49.196;8.286;2022-08-19T14:35:57;28.40;57.80
5461;DHT22;2753;49.196;8.286;2022-08-19T14:38:23;28.50;58.60
5461;DHT22;2753;49.196;8.286;2022-08-19T14:40:49;28.40;58.40
5461;DHT22;2753;49.196;8.286;2022-08-19T14:43:16;28.40;58.30
5461;DHT22;2753;49.196;8.286;2022-08-19T14:45:42;28.50;58.60
5461;DHT22;2753;49.196;8.286;2022-08-19T14:48:08;28.50;57.90
5461;DHT22;2753;49.196;8.286;2022-08-19T14:50:35;28.60;58.10
5461;DHT22;2753;49.196;8.286;2022-08-19T14:53:07;28.60;58.50
5461;DHT22;2753;49.196;8.286;2022-08-19T14:55:34;28.60;58.10
5461;DHT22;2753;49.196;8.286;2022-08-19T14:58:00;28.60;58.10
5461;DHT22;2753;49.196;8.286;2022-08-19T15:00:26;28.60;57.50
5461;DHT22;2753;49.196;8.286;2022-08-19T15:02:53;28.60;57.90
5461;DHT22;2753;49.196;8.286;2022-08-19T15:05:20;28.60;58.50
5461;DHT22;2753;49.196;8.286;2022-08-19T15:07:46;28.60;58.10
5461;DHT22;2753;49.196;8.286;2022-08-19T15:10:14;28.60;57.40
5461;DHT22;2753;49.196;8.286;2022-08-19T15:12:40;28.50;57.90
5461;DHT22;2753;49.196;8.286;2022-08-19T15:15:11;28.50;58.00
5461;DHT22;2753;49.196;8.286;2022-08-19T15:17:44;28.50;56.80
5461;DHT22;2753;49.196;8.286;2022-08-19T15:20:12;28.50;57.00
5461;DHT22;2753;49.196;8.286;2022-08-19T15:22:39;28.50;57.00
5461;DHT22;2753;49.196;8.286;2022-08-19T15:25:07;28.50;56.70
5461;DHT22;2753;49.196;8.286;2022-08-19T15:27:33;28.60;57.20
5461;DHT22;2753;49.196;8.286;2022-08-19T15:30:00;28.60;56.90
5461;DHT22;2753;49.196;8.286;2022-08-19T15:32:25;28.50;56.50
5461;DHT22;2753;49.196;8.286;2022-08-19T15:34:53;28.50;57.00
5461;DHT22;2753;49.196;8.286;2022-08-19T15:37:19;28.50;56.90
5461;DHT22;2753;49.196;8.286;2022-08-19T15:39:47;28.50;56.80
5461;DHT22;2753;49.196;8.286;2022-08-19T15:42:13;28.50;56.60
5461;DHT22;2753;49.196;8.286;2022-08-19T15:44:38;28.50;57.00
5461;DHT22;2753;49.196;8.286;2022-08-19T15:47:04;28.40;56.70
5461;DHT22;2753;49.196;8.286;2022-08-19T15:49:30;28.40;56.60
5461;DHT22;2753;49.196;8.286;2022-08-19T15:51:56;28.40;56.70
5461;DHT22;2753;49.196;8.286;2022-08-19T15:54:24;28.40;56.50
5461;DHT22;2753;49.196;8.286;2022-08-19T15:56:51;28.40;56.60
5461;DHT22;2753;49.196;8.286;2022-08-19T15:59:36;28.40;57.00
5461;DHT22;2753;49.196;8.286;2022-08-19T16:02:24;28.40;57.20
5461;DHT22;2753;49.196;8.286;2022-08-19T16:05:10;28.40;57.20
5461;DHT22;2753;49.196;8.286;2022-08-19T16:07:55;28.40;57.90
5461;DHT22;2753;49.196;8.286;2022-08-19T16:10:22;28.40;57.60
5461;DHT22;2753;49.196;8.286;2022-08-19T16:12:47;28.40;57.80
5461;DHT22;2753;49.196;8.286;2022-08-19T16:15:13;28.40;57.40
5461;DHT22;2753;49.196;8.286;2022-08-19T16:17:40;28.40;58.00
5461;DHT22;2753;49.196;8.286;2022-08-19T16:20:07;28.40;58.30